ADDS TAF Board (Experimental) INFO Settings
IDs: Format: Expanded Condensed

KDEN - Denver Intl, CO, US

Issued at 1735 UTC 27 Aug 2015
Updated at: 1922 UTC 27 Aug 2015
Time1853Z 27/20Z 27/21Z 27/22Z 27/23Z 28/00Z 28/01Z 28/02Z 28/03Z 28/04Z 28/05Z 28/06Z 28/07Z 28/08Z
Type OBS PRVL PRVL PRVL PRVL PRVL PRVL PRVL PRVL PRVL PRVL PRVL PRVL PRVL
VIS 10 >6 >6 >6 >6 >6 >6 >6 >6 >6 >6 >6 >6 >6
CIG -- 150 150 150 150 150 150 150 150 -- -- -- -- --
Cover SCT BKN BKN BKN BKN BKN BKN BKN BKN SCT SCT SCT SCT SCT
FltCat VFR VFR VFR VFR VFR VFR VFR VFR VFR VFR VFR VFR VFR VFR
WX -- -- VCSH VCSH VCSH VCSH VCSH VCSH VCSH -- -- -- -- --
WDir 260 320 330 330 330 330 330 330 330 220 220 220 220 220
WSpd 10 7 7 7 7 7 7 7 7 8 8 8 8 8
WGst -- -- -- -- -- -- -- -- -- -- -- -- -- --
R07/25
XWnd -2 5 6 6 6 6 6 6 6 -6 -6 -6 -6 -6
HWnd -10 -4 -4 -4 -4 -4 -4 -4 -4 -5 -5 -5 -5 -5
R08/26
XWnd -2 5 6 6 6 6 6 6 6 -6 -6 -6 -6 -6
HWnd -10 -5 -4 -4 -4 -4 -4 -4 -4 -5 -5 -5 -5 -5
R16/34
XWnd -10 -5 -4 -4 -4 -4 -4 -4 -4 -5 -5 -5 -5 -5
HWnd 2 -5 -6 -6 -6 -6 -6 -6 -6 6 6 6 6 6
R17/35
XWnd -10 -5 -4 -4 -4 -4 -4 -4 -4 -5 -5 -5 -5 -5
HWnd 2 -5 -6 -6 -6 -6 -6 -6 -6 6 6 6 6 6

NOTE: TEMPO conditions in [brackets]. Keep in mind TEMPO conditions might be better (lower impact) than prevailing conditions.

Raw TAF
KDEN 271735Z 2718/2824 32007KT P6SM FEW090 SCT120 BKN150
  FM272100 33007KT P6SM VCSH SCT100 BKN150
  FM280400 22008KT P6SM FEW100 SCT150
  FM281400 VRB05KT P6SM FEW220
  FM281900 02007KT P6SM FEW110 BKN220


Raw METAR
KDEN 271853Z 26010KT 10SM FEW090 SCT120 SCT200 29/08 A3013 RMK AO2 SLP119 T02890083
KDEN 271753Z 30009KT 10SM FEW090 SCT120 BKN150 27/09 A3015 RMK AO2 SLP124 T02720089 10272 20150 58002
KDEN 271653Z 30006KT 10SM FEW090 SCT120 BKN150 27/09 A3016 RMK AO2 SLP125 T02670089

METAR Board
Radar Display
Forecast Discussion

TAF Board Legend

Potential Impact
Threat None Slight Moderate High
Visibility (sm) ≥5.1 5.1>X≥3 3>X≥1 <1
Ceiling (100 ft) ≥30.1 30.1>X≥10 10>X≥5 <5
Wind Speed (kt) <10 10≤X<20 20≤X<30 ≥30
Wind Gust (kt) <15 15≤X<25 25≤X<35 ≥35
Weather No Wx Reported VCTS,-TS,-FZRA,SN TS,FZRA +TS,+FZRA,+SN